Metar z pełnej godziny Komunikat METAR ze strony awiacja.imgw.pl Metar G00 EPKT METAR EPKT 162200Z 17003KT 3000 BR NSC M07/M09 Q1018 =